Time,TemperatureF,DewpointF,PressureIn,WindDirection,WindDirectionDegrees,WindSpeedMPH,WindSpeedGustMPH,Humidity,HourlyPrecipIn,Conditions,Clouds,dailyrainin,SoftwareType,DateUTC
2013-02-17 00:11:00,27.2,23.0,29.87,SE,139,0.0,3.0,83,0.00,,,0.00,weatherlink.com 1.10,2013-02-17 06:11:00,
2013-02-17 00:26:00,27.0,23.0,29.87,SE,139,0.0,2.0,83,0.00,,,0.00,weatherlink.com 1.10,2013-02-17 06:26:00,
2013-02-17 00:40:00,26.8,22.0,29.87,South,182,0.0,4.0,83,0.00,,,0.00,weatherlink.com 1.10,2013-02-17 06:40:00,
2013-02-17 00:56:00,26.6,22.0,29.86,South,182,0.0,2.0,83,0.00,,,0.00,weatherlink.com 1.10,2013-02-17 06:56:00,
2013-02-17 01:11:00,26.3,22.0,29.87,South,182,0.0,0.0,84,0.00,,,0.00,weatherlink.com 1.10,2013-02-17 07:11:00,
2013-02-17 01:26:00,25.7,22.0,29.87,South,182,0.0,1.0,84,0.00,,,0.00,weatherlink.com 1.10,2013-02-17 07:26:00,
2013-02-17 01:41:00,25.3,21.0,29.87,South,182,0.0,2.0,85,0.00,,,0.00,weatherlink.com 1.10,2013-02-17 07:41:00,
2013-02-17 01:56:00,25.5,22.0,29.87,South,181,0.0,2.0,85,0.00,,,0.00,weatherlink.com 1.10,2013-02-17 07:56:00,
2013-02-17 02:11:00,25.6,22.0,29.86,SSE,160,0.0,2.0,85,0.00,,,0.00,weatherlink.com 1.10,2013-02-17 08:11:00,
2013-02-17 02:26:00,25.7,22.0,29.86,SSE,167,0.0,4.0,85,0.00,,,0.00,weatherlink.com 1.10,2013-02-17 08:26:00,
2013-02-17 02:41:00,25.7,22.0,29.86,SSE,165,2.0,3.0,84,0.00,,,0.00,weatherlink.com 1.10,2013-02-17 08:41:00,
2013-02-17 02:56:00,25.8,21.0,29.85,SSE,165,2.0,2.0,83,0.00,,,0.00,weatherlink.com 1.10,2013-02-17 08:56:00,
2013-02-17 03:11:00,25.6,21.0,29.85,SSE,165,0.0,2.0,84,0.00,,,0.00,weatherlink.com 1.10,2013-02-17 09:11:00,
2013-02-17 03:26:00,25.6,21.0,29.85,SSE,161,2.0,3.0,84,0.00,,,0.00,weatherlink.com 1.10,2013-02-17 09:26:00,
2013-02-17 03:41:00,25.5,21.0,29.84,SSE,161,0.0,3.0,83,0.00,,,0.00,weatherlink.com 1.10,2013-02-17 09:41:00,
2013-02-17 03:56:00,25.3,21.0,29.84,SSE,158,2.0,5.0,83,0.00,,,0.00,weatherlink.com 1.10,2013-02-17 09:56:00,
2013-02-17 04:12:00,25.4,21.0,29.83,SE,134,2.0,4.0,83,0.00,,,0.00,weatherlink.com 1.10,2013-02-17 10:12:00,
2013-02-17 04:27:00,25.5,21.0,29.83,South,186,3.0,4.0,83,0.00,,,0.00,weatherlink.com 1.10,2013-02-17 10:27:00,
2013-02-17 04:41:00,25.5,21.0,29.83,SSE,167,0.0,5.0,82,0.00,,,0.00,weatherlink.com 1.10,2013-02-17 10:41:00,
2013-02-17 04:57:00,25.6,21.0,29.82,ESE,111,3.0,4.0,82,0.00,,,0.00,weatherlink.com 1.10,2013-02-17 10:57:00,
2013-02-17 05:12:00,25.5,21.0,29.82,ESE,121,0.0,3.0,82,0.00,,,0.00,weatherlink.com 1.10,2013-02-17 11:12:00,
2013-02-17 05:27:00,25.4,21.0,29.81,SSE,164,1.0,4.0,82,0.00,,,0.00,weatherlink.com 1.10,2013-02-17 11:27:00,
2013-02-17 05:42:00,25.2,20.0,29.81,SE,130,0.0,5.0,82,0.00,,,0.00,weatherlink.com 1.10,2013-02-17 11:42:00,
2013-02-17 05:57:00,25.1,21.0,29.81,SSE,166,2.0,4.0,83,0.00,,,0.00,weatherlink.com 1.10,2013-02-17 11:57:00,
2013-02-17 06:12:00,25.0,21.0,29.80,SW,221,2.0,5.0,83,0.00,,,0.00,weatherlink.com 1.10,2013-02-17 12:12:00,
2013-02-17 06:27:00,24.9,20.0,29.80,South,182,0.0,6.0,83,0.00,,,0.00,weatherlink.com 1.10,2013-02-17 12:27:00,
2013-02-17 06:42:00,25.0,21.0,29.80,South,181,5.0,6.0,83,0.00,,,0.00,weatherlink.com 1.10,2013-02-17 12:42:00,
2013-02-17 06:57:00,25.0,20.0,29.79,SE,143,1.0,10.0,82,0.00,,,0.00,weatherlink.com 1.10,2013-02-17 12:57:00,
2013-02-17 07:12:00,25.2,20.0,29.78,SE,130,0.0,11.0,82,0.00,,,0.00,weatherlink.com 1.10,2013-02-17 13:12:00,
2013-02-17 07:27:00,25.2,20.0,29.78,SW,219,3.0,7.0,82,0.00,,,0.00,weatherlink.com 1.10,2013-02-17 13:27:00,
2013-02-17 07:42:00,25.1,20.0,29.78,SE,134,0.0,6.0,82,0.00,,,0.00,weatherlink.com 1.10,2013-02-17 13:42:00,
2013-02-17 07:57:00,25.3,21.0,29.78,SW,221,2.0,6.0,83,0.00,,,0.00,weatherlink.com 1.10,2013-02-17 13:57:00,
2013-02-17 08:12:00,25.8,21.0,29.79,South,179,3.0,5.0,82,0.00,,,0.00,weatherlink.com 1.10,2013-02-17 14:12:00,
2013-02-17 08:27:00,26.3,22.0,29.78,SSW,198,1.0,4.0,82,0.00,,,0.00,weatherlink.com 1.10,2013-02-17 14:27:00,
2013-02-17 08:42:00,27.3,22.0,29.78,SW,228,2.0,7.0,81,0.00,,,0.00,weatherlink.com 1.10,2013-02-17 14:42:00,
2013-02-17 08:59:00,28.3,23.0,29.77,SSW,209,2.0,10.0,79,0.00,,,0.00,weatherlink.com 1.10,2013-02-17 14:59:00,
2013-02-17 09:12:00,29.4,23.0,29.77,South,174,0.0,9.0,78,0.00,,,0.00,weatherlink.com 1.10,2013-02-17 15:12:00,
2013-02-17 09:27:00,30.6,24.0,29.76,SE,135,3.0,12.0,76,0.00,,,0.00,weatherlink.com 1.10,2013-02-17 15:27:00,
2013-02-17 09:42:00,32.0,25.0,29.74,SW,217,1.0,9.0,74,0.00,,,0.00,weatherlink.com 1.10,2013-02-17 15:42:00,
2013-02-17 09:57:00,33.4,25.0,29.73,SW,214,2.0,10.0,72,0.00,,,0.00,weatherlink.com 1.10,2013-02-17 15:57:00,
2013-02-17 10:12:00,34.7,26.0,29.73,South,171,6.0,8.0,70,0.00,,,0.00,weatherlink.com 1.10,2013-02-17 16:12:00,
2013-02-17 10:27:00,35.9,27.0,29.73,WSW,238,6.0,8.0,69,0.00,,,0.00,weatherlink.com 1.10,2013-02-17 16:27:00,
2013-02-17 10:42:00,36.4,27.0,29.73,SW,232,1.0,9.0,68,0.00,,,0.00,weatherlink.com 1.10,2013-02-17 16:42:00,
2013-02-17 10:57:00,37.3,28.0,29.72,SE,133,4.0,9.0,68,0.00,,,0.00,weatherlink.com 1.10,2013-02-17 16:57:00,
2013-02-17 11:13:00,38.6,29.0,29.71,SSE,167,3.0,9.0,68,0.00,,,0.00,weatherlink.com 1.10,2013-02-17 17:13:00,
2013-02-17 11:29:00,39.6,29.0,29.70,SW,215,5.0,12.0,67,0.00,,,0.00,weatherlink.com 1.10,2013-02-17 17:29:00,
2013-02-17 11:43:00,41.4,30.0,29.69,SW,225,3.0,10.0,65,0.00,,,0.00,weatherlink.com 1.10,2013-02-17 17:43:00,
2013-02-17 11:58:00,41.8,30.0,29.68,SSE,165,5.0,12.0,64,0.00,,,0.00,weatherlink.com 1.10,2013-02-17 17:58:00,
2013-02-17 12:13:00,42.9,31.0,29.67,SSE,165,4.0,12.0,63,0.00,,,0.00,weatherlink.com 1.10,2013-02-17 18:13:00,
2013-02-17 12:28:00,44.3,32.0,29.65,ESE,103,4.0,14.0,62,0.00,,,0.00,weatherlink.com 1.10,2013-02-17 18:28:00,
2013-02-17 12:43:00,45.1,31.0,29.64,WSW,255,4.0,14.0,59,0.00,,,0.00,weatherlink.com 1.10,2013-02-17 18:43:00,
2013-02-17 12:58:00,46.3,32.0,29.62,SW,216,7.0,13.0,59,0.00,,,0.00,weatherlink.com 1.10,2013-02-17 18:58:00,
2013-02-17 13:13:00,47.1,32.0,29.61,South,173,9.0,14.0,57,0.00,,,0.00,weatherlink.com 1.10,2013-02-17 19:13:00,
2013-02-17 13:28:00,48.1,33.0,29.60,SSE,168,3.0,15.0,57,0.00,,,0.00,weatherlink.com 1.10,2013-02-17 19:28:00,
2013-02-17 13:43:00,48.8,34.0,29.59,SE,144,8.0,12.0,56,0.00,,,0.00,weatherlink.com 1.10,2013-02-17 19:43:00,
2013-02-17 13:58:00,50.4,35.0,29.58,SW,221,5.0,8.0,55,0.00,,,0.00,weatherlink.com 1.10,2013-02-17 19:58:00,
2013-02-17 14:13:00,51.1,35.0,29.57,WSW,244,4.0,12.0,54,0.00,,,0.00,weatherlink.com 1.10,2013-02-17 20:13:00,
2013-02-17 14:29:00,50.5,35.0,29.55,SW,230,2.0,14.0,56,0.00,,,0.00,weatherlink.com 1.10,2013-02-17 20:29:00,
2013-02-17 14:43:00,50.5,35.0,29.55,SSW,213,14.0,15.0,56,0.00,,,0.00,weatherlink.com 1.10,2013-02-17 20:43:00,
2013-02-17 14:58:00,50.9,35.0,29.54,SW,228,8.0,14.0,55,0.00,,,0.00,weatherlink.com 1.10,2013-02-17 20:58:00,
2013-02-17 15:13:00,51.7,36.0,29.53,SSW,213,3.0,15.0,55,0.00,,,0.00,weatherlink.com 1.10,2013-02-17 21:13:00,
2013-02-17 15:28:00,53.7,37.0,29.53,ESE,122,5.0,13.0,53,0.00,,,0.00,weatherlink.com 1.10,2013-02-17 21:28:00,
2013-02-17 15:43:00,54.0,37.0,29.52,SE,134,3.0,12.0,52,0.00,,,0.00,weatherlink.com 1.10,2013-02-17 21:43:00,
2013-02-17 15:58:00,54.1,37.0,29.51,SSW,210,4.0,13.0,52,0.00,,,0.00,weatherlink.com 1.10,2013-02-17 21:58:00,
2013-02-17 16:28:00,54.5,37.0,29.50,SE,139,4.0,11.0,52,0.00,,,0.00,weatherlink.com 1.10,2013-02-17 22:28:00,
2013-02-17 16:43:00,54.9,37.0,29.49,SSW,211,1.0,10.0,52,0.00,,,0.00,weatherlink.com 1.10,2013-02-17 22:43:00,
2013-02-17 16:58:00,54.5,37.0,29.48,WSW,248,2.0,14.0,52,0.00,,,0.00,weatherlink.com 1.10,2013-02-17 22:58:00,
2013-02-17 17:13:00,53.9,37.0,29.47,SSW,197,1.0,12.0,53,0.00,,,0.00,weatherlink.com 1.10,2013-02-17 23:13:00,
2013-02-17 17:28:00,53.1,37.0,29.47,SW,231,4.0,11.0,54,0.00,,,0.00,weatherlink.com 1.10,2013-02-17 23:28:00,
2013-02-17 17:43:00,52.0,36.0,29.48,SSE,162,3.0,13.0,54,0.00,,,0.00,weatherlink.com 1.10,2013-02-17 23:43:00,
2013-02-17 17:58:00,51.0,36.0,29.47,SSW,202,0.0,7.0,56,0.00,,,0.00,weatherlink.com 1.10,2013-02-17 23:58:00,
2013-02-17 18:13:00,50.1,36.0,29.47,SSW,210,0.0,6.0,58,0.00,,,0.00,weatherlink.com 1.10,2013-02-18 00:13:00,
2013-02-17 18:29:00,49.2,35.0,29.47,SSW,198,1.0,7.0,59,0.00,,,0.00,weatherlink.com 1.10,2013-02-18 00:29:00,
2013-02-17 18:43:00,48.4,35.0,29.47,SSW,207,1.0,6.0,61,0.00,,,0.00,weatherlink.com 1.10,2013-02-18 00:43:00,
2013-02-17 18:59:00,48.0,35.0,29.47,South,171,2.0,8.0,62,0.00,,,0.00,weatherlink.com 1.10,2013-02-18 00:59:00,
2013-02-17 19:14:00,47.6,35.0,29.46,South,182,2.0,8.0,63,0.00,,,0.00,weatherlink.com 1.10,2013-02-18 01:14:00,
2013-02-17 19:29:00,47.7,35.0,29.45,SW,235,5.0,10.0,62,0.00,,,0.00,weatherlink.com 1.10,2013-02-18 01:29:00,
2013-02-17 19:44:00,47.7,35.0,29.45,SSW,203,0.0,9.0,62,0.00,,,0.00,weatherlink.com 1.10,2013-02-18 01:44:00,
2013-02-17 19:59:00,47.5,35.0,29.45,SSE,165,1.0,8.0,63,0.00,,,0.00,weatherlink.com 1.10,2013-02-18 01:59:00,
2013-02-17 20:14:00,47.4,35.0,29.45,South,179,1.0,10.0,63,0.00,,,0.00,weatherlink.com 1.10,2013-02-18 02:14:00,
2013-02-17 20:29:00,47.3,35.0,29.45,SSW,208,2.0,9.0,63,0.00,,,0.00,weatherlink.com 1.10,2013-02-18 02:29:00,
2013-02-17 20:44:00,47.5,35.0,29.44,South,175,1.0,10.0,62,0.00,,,0.00,weatherlink.com 1.10,2013-02-18 02:44:00,
2013-02-17 20:59:00,47.5,35.0,29.44,SSE,153,5.0,9.0,62,0.00,,,0.00,weatherlink.com 1.10,2013-02-18 02:59:00,
2013-02-17 21:14:00,47.4,35.0,29.44,South,178,1.0,9.0,62,0.00,,,0.00,weatherlink.com 1.10,2013-02-18 03:14:00,
2013-02-17 21:29:00,47.3,35.0,29.43,SSE,152,2.0,9.0,62,0.00,,,0.00,weatherlink.com 1.10,2013-02-18 03:29:00,
2013-02-17 21:44:00,47.0,34.0,29.43,WSW,239,2.0,9.0,62,0.00,,,0.00,weatherlink.com 1.10,2013-02-18 03:44:00,
2013-02-17 21:59:00,46.8,35.0,29.43,SSE,156,0.0,9.0,63,0.00,,,0.00,weatherlink.com 1.10,2013-02-18 03:59:00,
2013-02-17 22:14:00,46.4,34.0,29.42,SSE,158,6.0,11.0,63,0.00,,,0.00,weatherlink.com 1.10,2013-02-18 04:14:00,
2013-02-17 22:29:00,45.9,34.0,29.41,SSE,155,4.0,7.0,64,0.00,,,0.00,weatherlink.com 1.10,2013-02-18 04:29:00,
2013-02-17 22:44:00,45.5,34.0,29.41,SE,136,1.0,8.0,65,0.00,,,0.00,weatherlink.com 1.10,2013-02-18 04:44:00,
2013-02-17 22:59:00,45.2,34.0,29.40,SSE,152,3.0,9.0,66,0.00,,,0.00,weatherlink.com 1.10,2013-02-18 04:59:00,
2013-02-17 23:14:00,44.9,34.0,29.40,SSE,159,0.0,7.0,66,0.00,,,0.00,weatherlink.com 1.10,2013-02-18 05:14:00,
2013-02-17 23:29:00,44.7,34.0,29.39,SSW,194,0.0,3.0,67,0.00,,,0.00,weatherlink.com 1.10,2013-02-18 05:29:00,
2013-02-17 23:44:00,44.4,34.0,29.40,SSW,192,0.0,4.0,67,0.00,,,0.00,weatherlink.com 1.10,2013-02-18 05:44:00,
2013-02-17 23:59:00,44.1,34.0,29.39,WSW,249,0.0,7.0,68,0.00,,,0.00,weatherlink.com 1.10,2013-02-18 05:59:00,